sensor_id;sensor_type;location;lat;lon;timestamp;pressure;altitude;pressure_sealevel;temperature;humidity
34742;BME280;20968;42.696;23.360;2023-05-22T00:01:33;94989.72;;;17.17;66.45
34742;BME280;20968;42.696;23.360;2023-05-22T00:04:02;94983.13;;;17.20;65.82
34742;BME280;20968;42.696;23.360;2023-05-22T00:06:30;94983.56;;;17.24;66.13
34742;BME280;20968;42.696;23.360;2023-05-22T00:08:56;94987.84;;;17.25;66.12
34742;BME280;20968;42.696;23.360;2023-05-22T00:11:27;94985.28;;;17.32;65.73
34742;BME280;20968;42.696;23.360;2023-05-22T00:14:01;94975.72;;;17.28;65.76
34742;BME280;20968;42.696;23.360;2023-05-22T00:16:26;94986.47;;;17.37;65.88
34742;BME280;20968;42.696;23.360;2023-05-22T00:18:57;94973.97;;;17.43;66.34
34742;BME280;20968;42.696;23.360;2023-05-22T00:21:26;94981.88;;;17.39;65.96
34742;BME280;20968;42.696;23.360;2023-05-22T00:23:52;94984.78;;;17.47;65.35
34742;BME280;20968;42.696;23.360;2023-05-22T00:26:23;94982.31;;;17.43;65.65
34742;BME280;20968;42.696;23.360;2023-05-22T00:28:48;94979.22;;;17.47;65.73
34742;BME280;20968;42.696;23.360;2023-05-22T00:31:15;94982.84;;;17.42;65.41
34742;BME280;20968;42.696;23.360;2023-05-22T00:33:41;94976.38;;;17.34;66.30
34742;BME280;20968;42.696;23.360;2023-05-22T00:36:07;94979.94;;;17.34;65.92
34742;BME280;20968;42.696;23.360;2023-05-22T00:38:34;94982.41;;;17.38;65.91
34742;BME280;20968;42.696;23.360;2023-05-22T00:41:04;94990.38;;;17.28;66.15
34742;BME280;20968;42.696;23.360;2023-05-22T00:43:32;94990.06;;;17.32;66.31
34742;BME280;20968;42.696;23.360;2023-05-22T00:46:00;94981.72;;;17.32;66.37
34742;BME280;20968;42.696;23.360;2023-05-22T00:48:56;94989.25;;;17.37;65.75
34742;BME280;20968;42.696;23.360;2023-05-22T00:51:41;94986.53;;;17.31;66.27
34742;BME280;20968;42.696;23.360;2023-05-22T00:54:06;94987.38;;;17.45;65.54
34742;BME280;20968;42.696;23.360;2023-05-22T00:56:36;94976.16;;;17.32;65.94
34742;BME280;20968;42.696;23.360;2023-05-22T00:59:02;94976.84;;;17.38;65.59
34742;BME280;20968;42.696;23.360;2023-05-22T01:01:28;94982.78;;;17.47;65.95
34742;BME280;20968;42.696;23.360;2023-05-22T01:03:59;94972.56;;;17.37;65.72
34742;BME280;20968;42.696;23.360;2023-05-22T01:06:26;94989.09;;;17.48;65.80
34742;BME280;20968;42.696;23.360;2023-05-22T01:08:52;94973.00;;;17.41;65.73
34742;BME280;20968;42.696;23.360;2023-05-22T01:11:40;94976.25;;;17.45;65.59
34742;BME280;20968;42.696;23.360;2023-05-22T01:17:11;94975.53;;;17.39;65.44
34742;BME280;20968;42.696;23.360;2023-05-22T01:20:48;94983.47;;;17.35;65.90
34742;BME280;20968;42.696;23.360;2023-05-22T01:26:12;94984.59;;;17.45;65.93
34742;BME280;20968;42.696;23.360;2023-05-22T01:31:38;94978.72;;;17.48;65.92
34742;BME280;20968;42.696;23.360;2023-05-22T01:34:06;94966.97;;;17.37;66.01
34742;BME280;20968;42.696;23.360;2023-05-22T01:37:04;94974.81;;;17.38;66.13
34742;BME280;20968;42.696;23.360;2023-05-22T01:39:31;94959.44;;;17.32;66.34
34742;BME280;20968;42.696;23.360;2023-05-22T01:41:58;94967.28;;;17.33;66.12
34742;BME280;20968;42.696;23.360;2023-05-22T01:44:28;94965.31;;;17.28;65.78
34742;BME280;20968;42.696;23.360;2023-05-22T01:46:53;94956.22;;;17.28;65.63
34742;BME280;20968;42.696;23.360;2023-05-22T01:49:20;94967.59;;;17.30;66.24
34742;BME280;20968;42.696;23.360;2023-05-22T01:51:56;94960.84;;;17.20;66.12
34742;BME280;20968;42.696;23.360;2023-05-22T01:54:35;94959.59;;;17.21;66.36
34742;BME280;20968;42.696;23.360;2023-05-22T01:57:06;94968.66;;;17.21;66.68
34742;BME280;20968;42.696;23.360;2023-05-22T01:59:43;94965.22;;;17.15;66.00
34742;BME280;20968;42.696;23.360;2023-05-22T02:02:14;94958.69;;;17.13;66.62
34742;BME280;20968;42.696;23.360;2023-05-22T02:04:54;94955.97;;;17.08;66.36
34742;BME280;20968;42.696;23.360;2023-05-22T02:07:24;94966.78;;;17.11;66.62
34742;BME280;20968;42.696;23.360;2023-05-22T02:09:53;94950.69;;;17.04;66.76
34742;BME280;20968;42.696;23.360;2023-05-22T02:12:21;94961.59;;;17.02;67.10
34742;BME280;20968;42.696;23.360;2023-05-22T02:14:48;94957.91;;;16.94;66.59
34742;BME280;20968;42.696;23.360;2023-05-22T02:17:14;94970.53;;;16.95;66.84
34742;BME280;20968;42.696;23.360;2023-05-22T02:19:43;94970.09;;;16.91;66.73
34742;BME280;20968;42.696;23.360;2023-05-22T02:22:09;94966.78;;;16.93;66.63
34742;BME280;20968;42.696;23.360;2023-05-22T02:24:39;94956.69;;;16.90;66.49
34742;BME280;20968;42.696;23.360;2023-05-22T02:27:06;94959.31;;;16.82;66.79
34742;BME280;20968;42.696;23.360;2023-05-22T02:29:33;94963.38;;;16.81;66.83
34742;BME280;20968;42.696;23.360;2023-05-22T02:32:00;94947.34;;;16.69;67.40
34742;BME280;20968;42.696;23.360;2023-05-22T02:34:26;94955.28;;;16.59;67.61
34742;BME280;20968;42.696;23.360;2023-05-22T02:36:52;94960.03;;;16.40;68.35
34742;BME280;20968;42.696;23.360;2023-05-22T02:39:18;94968.22;;;16.33;68.80
34742;BME280;20968;42.696;23.360;2023-05-22T02:41:47;94966.69;;;16.32;68.35
34742;BME280;20968;42.696;23.360;2023-05-22T02:44:14;94957.63;;;16.32;68.81
34742;BME280;20968;42.696;23.360;2023-05-22T02:46:40;94956.88;;;16.26;68.95
34742;BME280;20968;42.696;23.360;2023-05-22T02:49:07;94955.28;;;16.06;70.13
34742;BME280;20968;42.696;23.360;2023-05-22T02:51:33;94958.84;;;16.07;69.66
34742;BME280;20968;42.696;23.360;2023-05-22T02:54:03;94959.00;;;16.14;69.69
34742;BME280;20968;42.696;23.360;2023-05-22T02:56:30;94958.50;;;16.16;70.11
34742;BME280;20968;42.696;23.360;2023-05-22T02:58:59;94957.25;;;16.17;69.66
34742;BME280;20968;42.696;23.360;2023-05-22T03:01:24;94961.25;;;16.21;69.90
34742;BME280;20968;42.696;23.360;2023-05-22T03:03:54;94959.44;;;16.24;69.53
34742;BME280;20968;42.696;23.360;2023-05-22T03:06:22;94948.72;;;16.09;69.96
34742;BME280;20968;42.696;23.360;2023-05-22T03:08:49;94952.75;;;16.08;69.85
34742;BME280;20968;42.696;23.360;2023-05-22T03:11:16;94967.63;;;16.11;69.63
34742;BME280;20968;42.696;23.360;2023-05-22T03:13:45;94955.25;;;16.12;70.44
34742;BME280;20968;42.696;23.360;2023-05-22T03:16:11;94963.38;;;16.10;69.75
34742;BME280;20968;42.696;23.360;2023-05-22T03:18:41;94961.84;;;16.09;70.10
34742;BME280;20968;42.696;23.360;2023-05-22T03:21:08;94964.63;;;16.09;70.04
34742;BME280;20968;42.696;23.360;2023-05-22T03:23:35;94964.97;;;16.00;70.00
34742;BME280;20968;42.696;23.360;2023-05-22T03:26:00;94951.31;;;16.02;69.99
34742;BME280;20968;42.696;23.360;2023-05-22T03:28:29;94964.41;;;16.07;70.16
34742;BME280;20968;42.696;23.360;2023-05-22T03:30:55;94960.41;;;16.02;70.54
34742;BME280;20968;42.696;23.360;2023-05-22T03:33:23;94963.91;;;16.03;70.29
34742;BME280;20968;42.696;23.360;2023-05-22T03:35:51;94958.63;;;15.99;69.97
34742;BME280;20968;42.696;23.360;2023-05-22T03:38:17;94953.84;;;16.00;70.10
34742;BME280;20968;42.696;23.360;2023-05-22T03:40:43;94962.44;;;16.02;70.30
34742;BME280;20968;42.696;23.360;2023-05-22T03:43:11;94953.84;;;16.00;70.22
34742;BME280;20968;42.696;23.360;2023-05-22T03:45:37;94952.88;;;15.97;70.11
34742;BME280;20968;42.696;23.360;2023-05-22T03:48:02;94962.16;;;16.05;69.80
34742;BME280;20968;42.696;23.360;2023-05-22T03:50:29;94954.31;;;16.04;70.03
34742;BME280;20968;42.696;23.360;2023-05-22T03:52:56;94971.50;;;16.02;70.64
34742;BME280;20968;42.696;23.360;2023-05-22T03:55:25;94961.00;;;15.90;72.92
34742;BME280;20968;42.696;23.360;2023-05-22T03:57:50;94970.13;;;16.14;75.20
34742;BME280;20968;42.696;23.360;2023-05-22T04:00:16;94971.28;;;16.30;74.63
34742;BME280;20968;42.696;23.360;2023-05-22T04:02:44;94971.88;;;16.46;75.68
34742;BME280;20968;42.696;23.360;2023-05-22T04:05:10;94972.41;;;16.63;73.63
34742;BME280;20968;42.696;23.360;2023-05-22T04:07:36;94961.00;;;16.67;72.70
34742;BME280;20968;42.696;23.360;2023-05-22T04:10:03;94975.28;;;16.82;73.14
34742;BME280;20968;42.696;23.360;2023-05-22T04:12:29;94974.88;;;16.91;73.32
34742;BME280;20968;42.696;23.360;2023-05-22T04:14:55;94977.91;;;17.11;71.87
34742;BME280;20968;42.696;23.360;2023-05-22T04:17:24;94975.06;;;17.16;69.06
34742;BME280;20968;42.696;23.360;2023-05-22T04:19:51;94977.31;;;17.18;68.75
34742;BME280;20968;42.696;23.360;2023-05-22T04:22:17;94983.34;;;17.22;67.14
34742;BME280;20968;42.696;23.360;2023-05-22T04:24:44;94983.31;;;17.27;67.47
34742;BME280;20968;42.696;23.360;2023-05-22T04:27:15;94965.88;;;17.21;66.99
34742;BME280;20968;42.696;23.360;2023-05-22T04:29:41;94970.94;;;17.23;66.78
34742;BME280;20968;42.696;23.360;2023-05-22T04:32:09;94978.00;;;17.24;67.57
34742;BME280;20968;42.696;23.360;2023-05-22T04:34:38;94990.00;;;17.37;66.93
34742;BME280;20968;42.696;23.360;2023-05-22T04:37:06;94982.63;;;17.40;66.58
34742;BME280;20968;42.696;23.360;2023-05-22T04:39:34;94984.44;;;17.37;66.62
34742;BME280;20968;42.696;23.360;2023-05-22T04:42:00;94986.84;;;17.46;66.58
34742;BME280;20968;42.696;23.360;2023-05-22T04:44:33;94979.63;;;17.56;66.70
34742;BME280;20968;42.696;23.360;2023-05-22T04:47:17;94990.75;;;17.56;65.72
34742;BME280;20968;42.696;23.360;2023-05-22T04:49:43;94989.84;;;17.67;65.47
34742;BME280;20968;42.696;23.360;2023-05-22T04:52:10;94986.97;;;17.72;64.46
34742;BME280;20968;42.696;23.360;2023-05-22T04:54:36;94994.34;;;17.70;64.63
34742;BME280;20968;42.696;23.360;2023-05-22T04:57:03;94991.66;;;17.64;65.66
34742;BME280;20968;42.696;23.360;2023-05-22T04:59:34;94995.41;;;17.67;65.85
34742;BME280;20968;42.696;23.360;2023-05-22T05:02:04;94983.81;;;17.63;65.41
34742;BME280;20968;42.696;23.360;2023-05-22T05:04:30;94997.31;;;17.59;66.01
34742;BME280;20968;42.696;23.360;2023-05-22T05:06:57;94984.41;;;17.56;65.26
34742;BME280;20968;42.696;23.360;2023-05-22T05:09:25;94988.56;;;17.68;65.36
34742;BME280;20968;42.696;23.360;2023-05-22T05:11:51;95003.38;;;17.76;65.25
34742;BME280;20968;42.696;23.360;2023-05-22T05:14:17;94994.63;;;17.85;64.80
34742;BME280;20968;42.696;23.360;2023-05-22T05:16:44;94993.13;;;17.84;64.14
34742;BME280;20968;42.696;23.360;2023-05-22T05:19:11;95004.09;;;17.94;63.57
34742;BME280;20968;42.696;23.360;2023-05-22T05:21:37;95005.44;;;18.06;63.77
34742;BME280;20968;42.696;23.360;2023-05-22T05:24:06;95006.75;;;18.18;63.39
34742;BME280;20968;42.696;23.360;2023-05-22T05:26:32;95003.16;;;18.05;63.17
34742;BME280;20968;42.696;23.360;2023-05-22T05:29:06;95008.56;;;18.16;63.64
34742;BME280;20968;42.696;23.360;2023-05-22T05:31:32;94998.09;;;18.22;62.51
34742;BME280;20968;42.696;23.360;2023-05-22T05:33:58;95001.13;;;18.37;62.84
34742;BME280;20968;42.696;23.360;2023-05-22T05:36:28;95003.22;;;18.49;61.89
34742;BME280;20968;42.696;23.360;2023-05-22T05:38:53;94991.59;;;18.45;61.89
34742;BME280;20968;42.696;23.360;2023-05-22T05:41:21;95006.22;;;18.64;61.46
34742;BME280;20968;42.696;23.360;2023-05-22T05:43:48;95005.50;;;18.76;61.75
34742;BME280;20968;42.696;23.360;2023-05-22T05:46:16;94993.06;;;18.77;60.64
34742;BME280;20968;42.696;23.360;2023-05-22T05:48:43;95003.56;;;18.97;59.32
34742;BME280;20968;42.696;23.360;2023-05-22T05:51:09;95006.69;;;18.94;59.81
34742;BME280;20968;42.696;23.360;2023-05-22T05:53:35;95000.78;;;18.97;58.44
34742;BME280;20968;42.696;23.360;2023-05-22T05:56:02;95001.72;;;19.00;58.85
34742;BME280;20968;42.696;23.360;2023-05-22T05:58:28;95008.41;;;19.10;58.00
34742;BME280;20968;42.696;23.360;2023-05-22T06:00:54;95006.72;;;19.20;58.07
34742;BME280;20968;42.696;23.360;2023-05-22T06:03:22;94998.97;;;19.13;57.90
34742;BME280;20968;42.696;23.360;2023-05-22T06:05:50;95000.97;;;19.25;57.79
34742;BME280;20968;42.696;23.360;2023-05-22T06:08:18;95006.75;;;19.40;58.13
34742;BME280;20968;42.696;23.360;2023-05-22T06:10:49;94998.94;;;19.39;58.22
34742;BME280;20968;42.696;23.360;2023-05-22T06:13:15;95000.75;;;19.36;57.28
34742;BME280;20968;42.696;23.360;2023-05-22T06:15:42;94994.84;;;19.40;57.52
34742;BME280;20968;42.696;23.360;2023-05-22T06:18:07;94997.53;;;19.45;56.97
34742;BME280;20968;42.696;23.360;2023-05-22T06:20:33;95007.09;;;19.50;56.38
34742;BME280;20968;42.696;23.360;2023-05-22T06:22:59;95000.63;;;19.54;56.32
34742;BME280;20968;42.696;23.360;2023-05-22T06:25:25;95009.09;;;19.62;56.20
34742;BME280;20968;42.696;23.360;2023-05-22T06:27:55;95008.22;;;19.67;54.88
34742;BME280;20968;42.696;23.360;2023-05-22T06:30:22;95002.25;;;19.50;54.49
34742;BME280;20968;42.696;23.360;2023-05-22T06:32:48;95006.13;;;19.47;54.83
34742;BME280;20968;42.696;23.360;2023-05-22T06:35:14;95004.47;;;19.52;54.67
34742;BME280;20968;42.696;23.360;2023-05-22T06:37:41;95008.09;;;19.72;54.73
34742;BME280;20968;42.696;23.360;2023-05-22T06:40:07;95002.25;;;19.96;52.43
34742;BME280;20968;42.696;23.360;2023-05-22T06:42:35;95012.69;;;20.16;53.31
34742;BME280;20968;42.696;23.360;2023-05-22T06:45:01;95010.72;;;20.44;51.74
34742;BME280;20968;42.696;23.360;2023-05-22T06:47:27;95011.19;;;20.76;55.18
34742;BME280;20968;42.696;23.360;2023-05-22T06:49:53;95003.06;;;20.86;53.03
34742;BME280;20968;42.696;23.360;2023-05-22T06:52:18;95008.50;;;20.71;52.65
34742;BME280;20968;42.696;23.360;2023-05-22T06:54:44;94995.94;;;20.85;55.02
34742;BME280;20968;42.696;23.360;2023-05-22T06:57:09;95007.41;;;21.29;55.67
34742;BME280;20968;42.696;23.360;2023-05-22T06:59:35;94999.94;;;21.60;54.59
34742;BME280;20968;42.696;23.360;2023-05-22T07:02:04;95009.19;;;21.83;52.22
34742;BME280;20968;42.696;23.360;2023-05-22T07:04:33;95005.78;;;21.77;51.06
34742;BME280;20968;42.696;23.360;2023-05-22T07:06:59;95004.94;;;22.04;51.88
34742;BME280;20968;42.696;23.360;2023-05-22T07:09:25;95011.13;;;22.10;51.75
34742;BME280;20968;42.696;23.360;2023-05-22T07:11:50;95012.41;;;22.01;50.08
34742;BME280;20968;42.696;23.360;2023-05-22T07:14:16;95010.75;;;22.06;48.29
34742;BME280;20968;42.696;23.360;2023-05-22T07:16:51;95007.38;;;22.07;49.01
34742;BME280;20968;42.696;23.360;2023-05-22T07:23:13;95005.91;;;22.14;48.88
34742;BME280;20968;42.696;23.360;2023-05-22T07:26:23;95018.50;;;22.43;46.71
34742;BME280;20968;42.696;23.360;2023-05-22T07:29:02;95004.47;;;22.43;47.28
34742;BME280;20968;42.696;23.360;2023-05-22T07:31:51;95004.31;;;22.63;46.51
34742;BME280;20968;42.696;23.360;2023-05-22T07:34:25;95003.34;;;22.53;47.31
34742;BME280;20968;42.696;23.360;2023-05-22T07:37:18;95002.81;;;22.55;45.96
34742;BME280;20968;42.696;23.360;2023-05-22T07:39:45;95000.94;;;22.57;47.09
34742;BME280;20968;42.696;23.360;2023-05-22T07:42:16;95006.34;;;22.48;47.30
34742;BME280;20968;42.696;23.360;2023-05-22T07:44:42;94999.59;;;22.36;47.54
34742;BME280;20968;42.696;23.360;2023-05-22T07:47:35;94996.94;;;22.23;47.61
34742;BME280;20968;42.696;23.360;2023-05-22T07:50:35;95006.88;;;22.31;49.52
34742;BME280;20968;42.696;23.360;2023-05-22T07:53:01;95001.63;;;22.28;46.89
34742;BME280;20968;42.696;23.360;2023-05-22T07:55:51;94992.50;;;22.42;48.72
34742;BME280;20968;42.696;23.360;2023-05-22T07:58:20;94995.69;;;22.54;48.44
34742;BME280;20968;42.696;23.360;2023-05-22T08:01:16;94998.31;;;22.67;47.64
34742;BME280;20968;42.696;23.360;2023-05-22T08:04:03;95001.84;;;22.89;47.24
34742;BME280;20968;42.696;23.360;2023-05-22T08:06:29;94988.56;;;23.12;45.37
34742;BME280;20968;42.696;23.360;2023-05-22T08:08:55;94988.72;;;23.29;46.13
34742;BME280;20968;42.696;23.360;2023-05-22T08:11:20;94993.69;;;23.53;45.30
34742;BME280;20968;42.696;23.360;2023-05-22T08:13:46;94989.97;;;23.43;44.66
34742;BME280;20968;42.696;23.360;2023-05-22T08:16:12;94988.22;;;23.55;45.61
34742;BME280;20968;42.696;23.360;2023-05-22T08:18:37;94990.81;;;23.68;42.88
34742;BME280;20968;42.696;23.360;2023-05-22T08:21:03;94986.53;;;23.59;44.10
34742;BME280;20968;42.696;23.360;2023-05-22T08:23:29;94989.53;;;23.54;41.88
34742;BME280;20968;42.696;23.360;2023-05-22T08:25:55;94999.47;;;23.55;44.41
34742;BME280;20968;42.696;23.360;2023-05-22T08:28:21;94994.94;;;23.74;43.45
34742;BME280;20968;42.696;23.360;2023-05-22T08:30:46;94996.41;;;23.83;43.26
34742;BME280;20968;42.696;23.360;2023-05-22T08:33:12;94991.84;;;23.95;44.11
34742;BME280;20968;42.696;23.360;2023-05-22T08:35:37;94990.47;;;24.35;42.41
34742;BME280;20968;42.696;23.360;2023-05-22T08:38:03;94985.84;;;24.23;41.31
34742;BME280;20968;42.696;23.360;2023-05-22T08:40:34;94985.09;;;23.98;42.46
34742;BME280;20968;42.696;23.360;2023-05-22T08:43:05;94994.19;;;24.13;43.27
34742;BME280;20968;42.696;23.360;2023-05-22T08:45:34;94985.91;;;24.15;41.49
34742;BME280;20968;42.696;23.360;2023-05-22T08:48:11;94980.38;;;24.32;43.30
34742;BME280;20968;42.696;23.360;2023-05-22T08:50:40;94984.94;;;24.20;37.34
34742;BME280;20968;42.696;23.360;2023-05-22T08:53:07;94985.81;;;23.98;37.01
34742;BME280;20968;42.696;23.360;2023-05-22T08:55:36;94977.25;;;23.89;37.17
34742;BME280;20968;42.696;23.360;2023-05-22T08:58:03;94988.06;;;24.00;37.38
34742;BME280;20968;42.696;23.360;2023-05-22T09:00:29;94975.28;;;24.06;39.68
34742;BME280;20968;42.696;23.360;2023-05-22T09:02:55;94976.84;;;24.24;37.64
34742;BME280;20968;42.696;23.360;2023-05-22T09:05:21;94973.94;;;24.39;36.98
34742;BME280;20968;42.696;23.360;2023-05-22T09:07:52;94984.50;;;24.31;36.34
34742;BME280;20968;42.696;23.360;2023-05-22T09:10:18;94974.75;;;24.32;38.36
34742;BME280;20968;42.696;23.360;2023-05-22T09:13:03;94978.25;;;24.08;37.01
34742;BME280;20968;42.696;23.360;2023-05-22T09:15:30;94977.28;;;23.81;38.65
34742;BME280;20968;42.696;23.360;2023-05-22T09:17:55;94970.69;;;23.86;39.66
34742;BME280;20968;42.696;23.360;2023-05-22T09:20:24;94979.38;;;23.73;39.81
34742;BME280;20968;42.696;23.360;2023-05-22T09:22:49;94968.19;;;23.51;38.35
34742;BME280;20968;42.696;23.360;2023-05-22T09:25:19;94974.47;;;23.27;39.76
34742;BME280;20968;42.696;23.360;2023-05-22T09:27:49;94983.09;;;23.29;40.09
34742;BME280;20968;42.696;23.360;2023-05-22T09:30:15;94978.97;;;23.30;41.44
34742;BME280;20968;42.696;23.360;2023-05-22T09:32:42;94981.94;;;23.32;41.83
34742;BME280;20968;42.696;23.360;2023-05-22T09:35:10;94982.91;;;23.27;43.81
34742;BME280;20968;42.696;23.360;2023-05-22T09:37:48;94980.69;;;23.11;43.79
34742;BME280;20968;42.696;23.360;2023-05-22T09:40:22;94977.50;;;22.92;43.96
34742;BME280;20968;42.696;23.360;2023-05-22T09:43:16;94978.28;;;22.77;43.84
34742;BME280;20968;42.696;23.360;2023-05-22T09:45:42;94968.72;;;22.80;43.84
34742;BME280;20968;42.696;23.360;2023-05-22T09:48:18;94976.97;;;22.64;43.77
34742;BME280;20968;42.696;23.360;2023-05-22T09:50:53;94976.22;;;22.41;46.09
34742;BME280;20968;42.696;23.360;2023-05-22T09:53:28;94983.16;;;22.47;47.00
34742;BME280;20968;42.696;23.360;2023-05-22T09:56:02;94972.84;;;22.35;46.10
34742;BME280;20968;42.696;23.360;2023-05-22T09:58:42;94975.78;;;22.22;46.40
34742;BME280;20968;42.696;23.360;2023-05-22T10:01:44;94979.34;;;22.15;46.94
34742;BME280;20968;42.696;23.360;2023-05-22T10:04:51;94987.53;;;21.98;47.60
34742;BME280;20968;42.696;23.360;2023-05-22T10:07:23;94975.34;;;21.88;47.09
34742;BME280;20968;42.696;23.360;2023-05-22T10:10:04;94980.06;;;21.93;47.72
34742;BME280;20968;42.696;23.360;2023-05-22T10:12:50;94976.72;;;22.02;47.45
34742;BME280;20968;42.696;23.360;2023-05-22T10:16:03;94976.69;;;21.94;47.11
34742;BME280;20968;42.696;23.360;2023-05-22T10:18:31;94979.66;;;21.89;48.71
34742;BME280;20968;42.696;23.360;2023-05-22T10:21:00;94981.69;;;21.81;48.94
34742;BME280;20968;42.696;23.360;2023-05-22T10:23:27;94980.34;;;21.67;48.15
34742;BME280;20968;42.696;23.360;2023-05-22T10:25:54;94971.59;;;21.35;54.44
34742;BME280;20968;42.696;23.360;2023-05-22T10:28:24;94975.78;;;20.86;56.66
34742;BME280;20968;42.696;23.360;2023-05-22T10:31:02;94985.09;;;20.61;59.95
34742;BME280;20968;42.696;23.360;2023-05-22T10:33:41;94989.28;;;20.47;60.47
34742;BME280;20968;42.696;23.360;2023-05-22T10:36:13;95006.34;;;20.36;61.60
34742;BME280;20968;42.696;23.360;2023-05-22T10:41:15;95007.69;;;20.02;63.41
34742;BME280;20968;42.696;23.360;2023-05-22T10:43:42;94999.59;;;20.11;63.41
34742;BME280;20968;42.696;23.360;2023-05-22T10:46:10;94984.50;;;20.14;62.99
34742;BME280;20968;42.696;23.360;2023-05-22T10:48:46;94994.06;;;20.39;63.46
34742;BME280;20968;42.696;23.360;2023-05-22T10:51:20;94990.03;;;20.47;62.48
34742;BME280;20968;42.696;23.360;2023-05-22T10:54:00;94980.81;;;20.60;60.00
34742;BME280;20968;42.696;23.360;2023-05-22T10:56:34;94982.19;;;20.74;58.49
34742;BME280;20968;42.696;23.360;2023-05-22T10:59:08;94982.25;;;21.02;60.17
34742;BME280;20968;42.696;23.360;2023-05-22T11:01:44;94979.91;;;21.20;57.26
34742;BME280;20968;42.696;23.360;2023-05-22T11:04:11;94968.59;;;21.33;58.54
34742;BME280;20968;42.696;23.360;2023-05-22T11:07:02;94982.03;;;21.70;58.70
34742;BME280;20968;42.696;23.360;2023-05-22T11:10:11;94973.84;;;21.87;59.63
34742;BME280;20968;42.696;23.360;2023-05-22T11:12:43;94975.72;;;21.85;57.13
34742;BME280;20968;42.696;23.360;2023-05-22T11:15:29;94971.84;;;22.10;59.27
34742;BME280;20968;42.696;23.360;2023-05-22T11:18:18;94961.72;;;21.99;57.28
34742;BME280;20968;42.696;23.360;2023-05-22T11:20:45;94964.28;;;21.75;58.74
34742;BME280;20968;42.696;23.360;2023-05-22T11:23:17;94977.59;;;21.39;56.16
34742;BME280;20968;42.696;23.360;2023-05-22T11:25:44;94998.25;;;20.94;54.56
34742;BME280;20968;42.696;23.360;2023-05-22T11:28:10;95004.91;;;20.42;54.57
34742;BME280;20968;42.696;23.360;2023-05-22T11:30:37;94989.41;;;20.21;54.81
34742;BME280;20968;42.696;23.360;2023-05-22T11:33:03;94994.91;;;19.60;54.68
34742;BME280;20968;42.696;23.360;2023-05-22T11:35:30;95007.75;;;19.30;55.17
34742;BME280;20968;42.696;23.360;2023-05-22T11:37:56;95019.03;;;19.11;55.88
34742;BME280;20968;42.696;23.360;2023-05-22T11:40:26;95014.81;;;18.92;55.30
34742;BME280;20968;42.696;23.360;2023-05-22T11:42:53;95013.00;;;18.81;55.83
34742;BME280;20968;42.696;23.360;2023-05-22T11:45:19;95023.31;;;18.86;56.29
34742;BME280;20968;42.696;23.360;2023-05-22T11:47:45;95024.94;;;19.08;55.42
34742;BME280;20968;42.696;23.360;2023-05-22T11:50:11;95012.25;;;19.07;55.52
34742;BME280;20968;42.696;23.360;2023-05-22T11:52:40;95010.88;;;19.13;55.21
34742;BME280;20968;42.696;23.360;2023-05-22T11:55:06;95014.66;;;19.29;57.00
34742;BME280;20968;42.696;23.360;2023-05-22T11:57:33;95013.88;;;19.28;55.49
34742;BME280;20968;42.696;23.360;2023-05-22T11:59:59;95008.50;;;19.30;55.01
34742;BME280;20968;42.696;23.360;2023-05-22T12:02:25;95014.84;;;19.31;54.57
34742;BME280;20968;42.696;23.360;2023-05-22T12:04:54;95011.38;;;19.38;55.16
34742;BME280;20968;42.696;23.360;2023-05-22T12:07:21;95016.03;;;19.35;55.41
34742;BME280;20968;42.696;23.360;2023-05-22T12:09:48;95004.53;;;19.26;55.32
34742;BME280;20968;42.696;23.360;2023-05-22T12:12:17;95019.91;;;19.19;53.57
34742;BME280;20968;42.696;23.360;2023-05-22T12:14:45;95026.44;;;19.22;56.48
34742;BME280;20968;42.696;23.360;2023-05-22T12:17:17;95012.81;;;19.18;57.01
34742;BME280;20968;42.696;23.360;2023-05-22T12:19:44;95012.28;;;19.20;58.43
34742;BME280;20968;42.696;23.360;2023-05-22T12:22:13;94997.66;;;19.14;59.37
34742;BME280;20968;42.696;23.360;2023-05-22T12:24:42;95001.63;;;19.18;59.68
34742;BME280;20968;42.696;23.360;2023-05-22T12:27:10;95001.75;;;19.26;60.20
34742;BME280;20968;42.696;23.360;2023-05-22T12:29:37;95005.28;;;19.39;61.68
34742;BME280;20968;42.696;23.360;2023-05-22T12:32:04;95000.66;;;19.42;62.18
34742;BME280;20968;42.696;23.360;2023-05-22T12:34:34;95005.69;;;19.43;61.81
34742;BME280;20968;42.696;23.360;2023-05-22T12:37:00;95001.53;;;19.24;60.76
34742;BME280;20968;42.696;23.360;2023-05-22T12:39:27;95008.19;;;19.34;59.19
34742;BME280;20968;42.696;23.360;2023-05-22T12:42:00;94990.25;;;19.29;59.61
34742;BME280;20968;42.696;23.360;2023-05-22T12:44:25;95011.63;;;19.40;59.49
34742;BME280;20968;42.696;23.360;2023-05-22T12:46:52;95003.66;;;19.31;59.06
34742;BME280;20968;42.696;23.360;2023-05-22T12:49:18;95004.97;;;19.30;59.87
34742;BME280;20968;42.696;23.360;2023-05-22T12:51:45;95010.22;;;19.46;60.47
34742;BME280;20968;42.696;23.360;2023-05-22T12:54:11;95012.78;;;19.44;63.37
34742;BME280;20968;42.696;23.360;2023-05-22T12:56:45;95016.78;;;19.36;64.69
34742;BME280;20968;42.696;23.360;2023-05-22T12:59:12;95008.03;;;19.52;65.06
34742;BME280;20968;42.696;23.360;2023-05-22T13:01:39;95011.78;;;19.54;62.85
34742;BME280;20968;42.696;23.360;2023-05-22T13:04:05;95002.69;;;19.74;63.68
34742;BME280;20968;42.696;23.360;2023-05-22T13:06:31;94998.38;;;19.86;63.71
34742;BME280;20968;42.696;23.360;2023-05-22T13:08:57;94991.38;;;19.93;58.99
34742;BME280;20968;42.696;23.360;2023-05-22T13:11:23;94993.25;;;20.11;57.04
34742;BME280;20968;42.696;23.360;2023-05-22T13:13:50;94966.75;;;19.91;54.99
34742;BME280;20968;42.696;23.360;2023-05-22T13:16:16;94978.03;;;19.99;57.55
34742;BME280;20968;42.696;23.360;2023-05-22T13:18:41;94968.53;;;20.02;56.31
34742;BME280;20968;42.696;23.360;2023-05-22T13:21:07;94959.16;;;20.12;55.90